sensor_id;sensor_type;location;lat;lon;timestamp;P1;durP1;ratioP1;P2;durP2;ratioP2
1601;SDS011;794;48.592;9.634;2022-12-07T00:02:15;16.50;;;11.47;;
1601;SDS011;794;48.592;9.634;2022-12-07T00:04:45;13.37;;;9.00;;
1601;SDS011;794;48.592;9.634;2022-12-07T00:07:12;15.33;;;10.33;;
1601;SDS011;794;48.592;9.634;2022-12-07T00:09:39;15.20;;;10.43;;
1601;SDS011;794;48.592;9.634;2022-12-07T00:12:08;12.47;;;9.80;;
1601;SDS011;794;48.592;9.634;2022-12-07T00:14:35;14.00;;;10.47;;
1601;SDS011;794;48.592;9.634;2022-12-07T00:17:04;12.53;;;10.20;;
1601;SDS011;794;48.592;9.634;2022-12-07T00:19:32;14.83;;;11.47;;
1601;SDS011;794;48.592;9.634;2022-12-07T00:21:59;16.03;;;12.13;;
1601;SDS011;794;48.592;9.634;2022-12-07T00:24:28;15.10;;;12.03;;
1601;SDS011;794;48.592;9.634;2022-12-07T00:26:55;15.90;;;11.70;;
1601;SDS011;794;48.592;9.634;2022-12-07T00:29:24;12.47;;;11.13;;
1601;SDS011;794;48.592;9.634;2022-12-07T00:31:51;15.00;;;12.07;;
1601;SDS011;794;48.592;9.634;2022-12-07T00:34:19;16.37;;;13.30;;
1601;SDS011;794;48.592;9.634;2022-12-07T00:36:47;19.30;;;12.70;;
1601;SDS011;794;48.592;9.634;2022-12-07T00:39:19;16.57;;;12.97;;
1601;SDS011;794;48.592;9.634;2022-12-07T00:41:48;17.70;;;13.20;;
1601;SDS011;794;48.592;9.634;2022-12-07T00:44:17;17.10;;;12.30;;
1601;SDS011;794;48.592;9.634;2022-12-07T00:46:46;18.23;;;12.20;;
1601;SDS011;794;48.592;9.634;2022-12-07T00:49:13;19.77;;;12.93;;
1601;SDS011;794;48.592;9.634;2022-12-07T00:51:41;17.33;;;12.80;;
1601;SDS011;794;48.592;9.634;2022-12-07T00:54:10;15.40;;;11.83;;
1601;SDS011;794;48.592;9.634;2022-12-07T00:56:37;15.90;;;12.67;;
1601;SDS011;794;48.592;9.634;2022-12-07T00:59:04;15.20;;;12.00;;
1601;SDS011;794;48.592;9.634;2022-12-07T01:01:33;12.50;;;10.87;;
1601;SDS011;794;48.592;9.634;2022-12-07T01:04:03;12.80;;;10.00;;
1601;SDS011;794;48.592;9.634;2022-12-07T01:06:30;11.77;;;9.73;;
1601;SDS011;794;48.592;9.634;2022-12-07T01:08:57;13.67;;;10.37;;
1601;SDS011;794;48.592;9.634;2022-12-07T01:11:25;15.07;;;11.73;;
1601;SDS011;794;48.592;9.634;2022-12-07T01:13:53;14.10;;;10.03;;
1601;SDS011;794;48.592;9.634;2022-12-07T01:16:22;11.63;;;10.07;;
1601;SDS011;794;48.592;9.634;2022-12-07T01:18:50;12.90;;;10.47;;
1601;SDS011;794;48.592;9.634;2022-12-07T01:21:21;12.27;;;9.67;;
1601;SDS011;794;48.592;9.634;2022-12-07T01:23:49;11.80;;;9.73;;
1601;SDS011;794;48.592;9.634;2022-12-07T01:26:19;13.40;;;10.40;;
1601;SDS011;794;48.592;9.634;2022-12-07T01:28:48;13.33;;;10.33;;
1601;SDS011;794;48.592;9.634;2022-12-07T01:31:19;12.93;;;11.20;;
1601;SDS011;794;48.592;9.634;2022-12-07T01:33:47;14.57;;;10.10;;
1601;SDS011;794;48.592;9.634;2022-12-07T01:36:16;13.73;;;10.13;;
1601;SDS011;794;48.592;9.634;2022-12-07T01:38:45;12.90;;;10.40;;
1601;SDS011;794;48.592;9.634;2022-12-07T01:41:13;15.77;;;11.57;;
1601;SDS011;794;48.592;9.634;2022-12-07T01:44:06;12.60;;;9.90;;
1601;SDS011;794;48.592;9.634;2022-12-07T01:46:29;12.57;;;9.63;;
1601;SDS011;794;48.592;9.634;2022-12-07T01:48:57;11.47;;;9.97;;
1601;SDS011;794;48.592;9.634;2022-12-07T01:51:25;9.90;;;7.40;;
1601;SDS011;794;48.592;9.634;2022-12-07T01:53:57;11.40;;;9.77;;
1601;SDS011;794;48.592;9.634;2022-12-07T01:56:24;10.13;;;8.87;;
1601;SDS011;794;48.592;9.634;2022-12-07T01:58:53;10.07;;;8.07;;
1601;SDS011;794;48.592;9.634;2022-12-07T02:01:22;11.47;;;8.43;;
1601;SDS011;794;48.592;9.634;2022-12-07T02:03:49;10.93;;;8.13;;
1601;SDS011;794;48.592;9.634;2022-12-07T02:06:19;12.87;;;9.10;;
1601;SDS011;794;48.592;9.634;2022-12-07T02:08:47;8.90;;;8.00;;
1601;SDS011;794;48.592;9.634;2022-12-07T02:11:19;11.73;;;9.20;;
1601;SDS011;794;48.592;9.634;2022-12-07T02:13:46;12.50;;;9.07;;
1601;SDS011;794;48.592;9.634;2022-12-07T02:16:19;11.97;;;8.47;;
1601;SDS011;794;48.592;9.634;2022-12-07T02:18:55;15.10;;;8.60;;
1601;SDS011;794;48.592;9.634;2022-12-07T02:21:27;10.73;;;8.80;;
1601;SDS011;794;48.592;9.634;2022-12-07T02:26:50;11.53;;;9.73;;
1601;SDS011;794;48.592;9.634;2022-12-07T02:29:29;12.00;;;10.50;;
1601;SDS011;794;48.592;9.634;2022-12-07T02:32:01;13.70;;;9.23;;
1601;SDS011;794;48.592;9.634;2022-12-07T02:34:34;15.37;;;10.37;;
1601;SDS011;794;48.592;9.634;2022-12-07T02:37:09;13.40;;;10.23;;
1601;SDS011;794;48.592;9.634;2022-12-07T02:39:39;12.07;;;10.47;;
1601;SDS011;794;48.592;9.634;2022-12-07T02:42:09;11.30;;;9.30;;
1601;SDS011;794;48.592;9.634;2022-12-07T02:44:40;16.03;;;10.60;;
1601;SDS011;794;48.592;9.634;2022-12-07T02:47:12;11.80;;;10.23;;
1601;SDS011;794;48.592;9.634;2022-12-07T02:49:41;11.70;;;8.50;;
1601;SDS011;794;48.592;9.634;2022-12-07T02:52:08;10.77;;;8.10;;
1601;SDS011;794;48.592;9.634;2022-12-07T02:54:36;10.87;;;8.80;;
1601;SDS011;794;48.592;9.634;2022-12-07T02:57:07;9.87;;;8.17;;
1601;SDS011;794;48.592;9.634;2022-12-07T02:59:44;9.63;;;7.37;;
1601;SDS011;794;48.592;9.634;2022-12-07T03:02:18;10.47;;;8.70;;
1601;SDS011;794;48.592;9.634;2022-12-07T03:04:50;7.20;;;6.50;;
1601;SDS011;794;48.592;9.634;2022-12-07T03:07:21;10.17;;;7.87;;
1601;SDS011;794;48.592;9.634;2022-12-07T03:09:51;11.10;;;7.40;;
1601;SDS011;794;48.592;9.634;2022-12-07T03:12:21;8.47;;;7.33;;
1601;SDS011;794;48.592;9.634;2022-12-07T03:14:55;8.50;;;7.40;;
1601;SDS011;794;48.592;9.634;2022-12-07T03:17:38;9.20;;;7.00;;
1601;SDS011;794;48.592;9.634;2022-12-07T03:20:07;9.93;;;6.90;;
1601;SDS011;794;48.592;9.634;2022-12-07T03:22:35;9.00;;;7.07;;
1601;SDS011;794;48.592;9.634;2022-12-07T03:25:05;9.40;;;7.30;;
1601;SDS011;794;48.592;9.634;2022-12-07T03:27:34;9.07;;;7.07;;
1601;SDS011;794;48.592;9.634;2022-12-07T03:30:06;10.13;;;7.53;;
1601;SDS011;794;48.592;9.634;2022-12-07T03:32:34;9.50;;;7.07;;
1601;SDS011;794;48.592;9.634;2022-12-07T03:35:06;9.77;;;7.63;;
1601;SDS011;794;48.592;9.634;2022-12-07T03:37:36;8.30;;;7.30;;
1601;SDS011;794;48.592;9.634;2022-12-07T03:40:06;11.30;;;8.43;;
1601;SDS011;794;48.592;9.634;2022-12-07T03:42:39;9.70;;;7.30;;
1601;SDS011;794;48.592;9.634;2022-12-07T03:45:08;12.30;;;8.73;;
1601;SDS011;794;48.592;9.634;2022-12-07T03:47:37;10.20;;;8.00;;
1601;SDS011;794;48.592;9.634;2022-12-07T03:50:13;9.30;;;7.43;;
1601;SDS011;794;48.592;9.634;2022-12-07T03:52:42;10.03;;;8.03;;
1601;SDS011;794;48.592;9.634;2022-12-07T03:55:13;13.30;;;8.97;;
1601;SDS011;794;48.592;9.634;2022-12-07T03:57:43;13.60;;;9.90;;
1601;SDS011;794;48.592;9.634;2022-12-07T04:00:15;11.00;;;8.57;;
1601;SDS011;794;48.592;9.634;2022-12-07T04:02:45;11.20;;;8.73;;
1601;SDS011;794;48.592;9.634;2022-12-07T04:05:12;11.77;;;9.20;;
1601;SDS011;794;48.592;9.634;2022-12-07T04:07:41;13.07;;;8.37;;
1601;SDS011;794;48.592;9.634;2022-12-07T04:10:09;11.40;;;8.90;;
1601;SDS011;794;48.592;9.634;2022-12-07T04:12:37;11.63;;;8.17;;
1601;SDS011;794;48.592;9.634;2022-12-07T04:15:06;11.13;;;9.20;;
1601;SDS011;794;48.592;9.634;2022-12-07T04:17:36;12.70;;;8.10;;
1601;SDS011;794;48.592;9.634;2022-12-07T04:20:04;15.40;;;9.37;;
1601;SDS011;794;48.592;9.634;2022-12-07T04:22:31;13.90;;;10.00;;
1601;SDS011;794;48.592;9.634;2022-12-07T04:24:59;12.60;;;8.93;;
1601;SDS011;794;48.592;9.634;2022-12-07T04:27:26;11.63;;;8.13;;
1601;SDS011;794;48.592;9.634;2022-12-07T04:29:53;10.70;;;8.67;;
1601;SDS011;794;48.592;9.634;2022-12-07T04:32:21;12.03;;;8.70;;
1601;SDS011;794;48.592;9.634;2022-12-07T04:34:49;12.63;;;9.03;;
1601;SDS011;794;48.592;9.634;2022-12-07T04:37:17;11.70;;;9.43;;
1601;SDS011;794;48.592;9.634;2022-12-07T04:39:44;12.63;;;8.83;;
1601;SDS011;794;48.592;9.634;2022-12-07T04:42:11;15.37;;;10.20;;
1601;SDS011;794;48.592;9.634;2022-12-07T04:44:39;12.40;;;9.10;;
1601;SDS011;794;48.592;9.634;2022-12-07T04:47:09;12.60;;;9.33;;
1601;SDS011;794;48.592;9.634;2022-12-07T04:49:36;14.00;;;9.80;;
1601;SDS011;794;48.592;9.634;2022-12-07T04:52:05;13.00;;;10.60;;
1601;SDS011;794;48.592;9.634;2022-12-07T04:54:32;17.73;;;11.03;;
1601;SDS011;794;48.592;9.634;2022-12-07T04:56:59;15.07;;;10.33;;
1601;SDS011;794;48.592;9.634;2022-12-07T04:59:26;12.17;;;9.07;;
1601;SDS011;794;48.592;9.634;2022-12-07T05:01:59;12.47;;;9.70;;
1601;SDS011;794;48.592;9.634;2022-12-07T05:04:27;15.40;;;11.30;;
1601;SDS011;794;48.592;9.634;2022-12-07T05:06:54;13.27;;;9.73;;
1601;SDS011;794;48.592;9.634;2022-12-07T05:09:22;13.37;;;7.83;;
1601;SDS011;794;48.592;9.634;2022-12-07T05:11:50;10.67;;;8.07;;
1601;SDS011;794;48.592;9.634;2022-12-07T05:14:18;13.97;;;9.57;;
1601;SDS011;794;48.592;9.634;2022-12-07T05:16:46;11.17;;;8.23;;
1601;SDS011;794;48.592;9.634;2022-12-07T05:19:14;14.17;;;9.80;;
1601;SDS011;794;48.592;9.634;2022-12-07T05:21:44;9.70;;;7.70;;
1601;SDS011;794;48.592;9.634;2022-12-07T05:24:12;12.07;;;8.40;;
1601;SDS011;794;48.592;9.634;2022-12-07T05:26:41;10.30;;;8.00;;
1601;SDS011;794;48.592;9.634;2022-12-07T05:29:10;15.67;;;9.10;;
1601;SDS011;794;48.592;9.634;2022-12-07T05:31:38;10.47;;;8.93;;
1601;SDS011;794;48.592;9.634;2022-12-07T05:34:05;11.33;;;7.23;;
1601;SDS011;794;48.592;9.634;2022-12-07T05:36:33;10.87;;;7.37;;
1601;SDS011;794;48.592;9.634;2022-12-07T05:39:04;9.40;;;7.53;;
1601;SDS011;794;48.592;9.634;2022-12-07T05:41:31;10.67;;;7.87;;
1601;SDS011;794;48.592;9.634;2022-12-07T05:44:17;8.63;;;6.87;;
1601;SDS011;794;48.592;9.634;2022-12-07T05:46:44;12.13;;;8.27;;
1601;SDS011;794;48.592;9.634;2022-12-07T05:49:11;11.97;;;7.07;;
1601;SDS011;794;48.592;9.634;2022-12-07T05:51:40;12.27;;;8.23;;
1601;SDS011;794;48.592;9.634;2022-12-07T05:54:07;10.70;;;8.43;;
1601;SDS011;794;48.592;9.634;2022-12-07T05:56:35;10.80;;;8.27;;
1601;SDS011;794;48.592;9.634;2022-12-07T05:59:02;14.67;;;9.10;;
1601;SDS011;794;48.592;9.634;2022-12-07T06:01:50;11.97;;;8.17;;
1601;SDS011;794;48.592;9.634;2022-12-07T06:04:17;13.40;;;8.43;;
1601;SDS011;794;48.592;9.634;2022-12-07T06:06:44;11.63;;;8.50;;
1601;SDS011;794;48.592;9.634;2022-12-07T06:09:12;10.83;;;7.57;;
1601;SDS011;794;48.592;9.634;2022-12-07T06:11:39;10.30;;;7.47;;
1601;SDS011;794;48.592;9.634;2022-12-07T06:14:24;15.37;;;11.03;;
1601;SDS011;794;48.592;9.634;2022-12-07T06:16:53;26.80;;;14.73;;
1601;SDS011;794;48.592;9.634;2022-12-07T06:19:20;39.93;;;25.63;;
1601;SDS011;794;48.592;9.634;2022-12-07T06:21:50;40.60;;;24.97;;
1601;SDS011;794;48.592;9.634;2022-12-07T06:24:17;11.50;;;9.30;;
1601;SDS011;794;48.592;9.634;2022-12-07T06:26:46;19.00;;;9.87;;
1601;SDS011;794;48.592;9.634;2022-12-07T06:29:13;14.50;;;9.90;;
1601;SDS011;794;48.592;9.634;2022-12-07T06:31:40;46.40;;;27.10;;
1601;SDS011;794;48.592;9.634;2022-12-07T06:34:10;37.90;;;25.50;;
1601;SDS011;794;48.592;9.634;2022-12-07T06:36:38;17.67;;;14.97;;
1601;SDS011;794;48.592;9.634;2022-12-07T06:39:05;21.80;;;11.50;;
1601;SDS011;794;48.592;9.634;2022-12-07T06:41:34;17.97;;;11.10;;
1601;SDS011;794;48.592;9.634;2022-12-07T06:44:02;15.67;;;9.73;;
1601;SDS011;794;48.592;9.634;2022-12-07T06:46:30;12.07;;;8.23;;
1601;SDS011;794;48.592;9.634;2022-12-07T06:49:00;12.80;;;9.23;;
1601;SDS011;794;48.592;9.634;2022-12-07T06:51:29;18.00;;;10.33;;
1601;SDS011;794;48.592;9.634;2022-12-07T06:53:56;19.57;;;11.03;;
1601;SDS011;794;48.592;9.634;2022-12-07T06:56:23;14.13;;;8.53;;
1601;SDS011;794;48.592;9.634;2022-12-07T06:58:52;13.20;;;9.30;;
1601;SDS011;794;48.592;9.634;2022-12-07T07:01:20;13.50;;;8.90;;
1601;SDS011;794;48.592;9.634;2022-12-07T07:03:49;12.30;;;9.40;;
1601;SDS011;794;48.592;9.634;2022-12-07T07:06:17;13.90;;;8.50;;
1601;SDS011;794;48.592;9.634;2022-12-07T07:08:46;13.00;;;9.07;;
1601;SDS011;794;48.592;9.634;2022-12-07T07:11:13;13.23;;;9.63;;
1601;SDS011;794;48.592;9.634;2022-12-07T07:13:40;13.50;;;9.60;;
1601;SDS011;794;48.592;9.634;2022-12-07T07:16:08;12.97;;;8.57;;
1601;SDS011;794;48.592;9.634;2022-12-07T07:18:37;13.23;;;9.00;;
1601;SDS011;794;48.592;9.634;2022-12-07T07:21:06;13.33;;;9.03;;
1601;SDS011;794;48.592;9.634;2022-12-07T07:23:33;14.10;;;9.97;;
1601;SDS011;794;48.592;9.634;2022-12-07T07:26:02;12.20;;;7.53;;
1601;SDS011;794;48.592;9.634;2022-12-07T07:28:29;9.90;;;7.67;;
1601;SDS011;794;48.592;9.634;2022-12-07T07:30:56;13.50;;;8.43;;
1601;SDS011;794;48.592;9.634;2022-12-07T07:33:24;15.00;;;9.93;;
1601;SDS011;794;48.592;9.634;2022-12-07T07:35:51;16.10;;;9.93;;
1601;SDS011;794;48.592;9.634;2022-12-07T07:38:18;14.10;;;9.57;;
1601;SDS011;794;48.592;9.634;2022-12-07T07:40:45;8.87;;;6.80;;
1601;SDS011;794;48.592;9.634;2022-12-07T07:43:16;13.57;;;9.50;;
1601;SDS011;794;48.592;9.634;2022-12-07T07:45:43;10.53;;;9.43;;
1601;SDS011;794;48.592;9.634;2022-12-07T07:48:11;11.40;;;8.53;;
1601;SDS011;794;48.592;9.634;2022-12-07T07:50:38;10.03;;;6.80;;
1601;SDS011;794;48.592;9.634;2022-12-07T07:53:05;12.43;;;8.30;;
1601;SDS011;794;48.592;9.634;2022-12-07T07:55:33;9.57;;;7.17;;
1601;SDS011;794;48.592;9.634;2022-12-07T07:58:00;13.43;;;9.30;;
1601;SDS011;794;48.592;9.634;2022-12-07T08:00:29;9.20;;;6.97;;
1601;SDS011;794;48.592;9.634;2022-12-07T08:02:56;7.50;;;6.60;;
1601;SDS011;794;48.592;9.634;2022-12-07T08:05:24;10.10;;;7.67;;
1601;SDS011;794;48.592;9.634;2022-12-07T08:07:51;9.80;;;6.10;;
1601;SDS011;794;48.592;9.634;2022-12-07T08:10:19;7.17;;;5.40;;
1601;SDS011;794;48.592;9.634;2022-12-07T08:12:49;6.70;;;5.37;;
1601;SDS011;794;48.592;9.634;2022-12-07T08:15:35;9.50;;;6.40;;
1601;SDS011;794;48.592;9.634;2022-12-07T08:18:06;6.10;;;5.17;;
1601;SDS011;794;48.592;9.634;2022-12-07T08:20:34;14.23;;;5.93;;
1601;SDS011;794;48.592;9.634;2022-12-07T08:23:01;9.80;;;6.90;;
1601;SDS011;794;48.592;9.634;2022-12-07T08:25:29;10.70;;;7.27;;
1601;SDS011;794;48.592;9.634;2022-12-07T08:27:56;12.70;;;7.67;;
1601;SDS011;794;48.592;9.634;2022-12-07T08:30:26;8.40;;;6.17;;
1601;SDS011;794;48.592;9.634;2022-12-07T08:32:55;46.33;;;23.80;;
1601;SDS011;794;48.592;9.634;2022-12-07T08:35:24;12.77;;;9.23;;
1601;SDS011;794;48.592;9.634;2022-12-07T08:37:52;12.20;;;8.10;;
1601;SDS011;794;48.592;9.634;2022-12-07T08:40:19;11.20;;;7.00;;
1601;SDS011;794;48.592;9.634;2022-12-07T08:42:50;9.77;;;6.77;;
1601;SDS011;794;48.592;9.634;2022-12-07T08:45:20;6.47;;;4.83;;
1601;SDS011;794;48.592;9.634;2022-12-07T08:47:48;7.10;;;5.00;;
1601;SDS011;794;48.592;9.634;2022-12-07T08:50:18;10.57;;;6.10;;
1601;SDS011;794;48.592;9.634;2022-12-07T08:52:47;9.80;;;6.10;;
1601;SDS011;794;48.592;9.634;2022-12-07T08:55:17;10.30;;;7.60;;
1601;SDS011;794;48.592;9.634;2022-12-07T08:57:44;8.60;;;6.63;;
1601;SDS011;794;48.592;9.634;2022-12-07T09:00:12;10.77;;;7.73;;
1601;SDS011;794;48.592;9.634;2022-12-07T09:02:39;7.50;;;6.70;;
1601;SDS011;794;48.592;9.634;2022-12-07T09:05:09;7.77;;;6.60;;
1601;SDS011;794;48.592;9.634;2022-12-07T09:07:38;7.93;;;6.20;;
1601;SDS011;794;48.592;9.634;2022-12-07T09:10:06;7.57;;;6.53;;
1601;SDS011;794;48.592;9.634;2022-12-07T09:12:34;8.43;;;6.20;;
1601;SDS011;794;48.592;9.634;2022-12-07T09:15:01;7.43;;;5.80;;
1601;SDS011;794;48.592;9.634;2022-12-07T09:17:31;7.10;;;5.07;;
1601;SDS011;794;48.592;9.634;2022-12-07T09:20:02;7.90;;;6.80;;
1601;SDS011;794;48.592;9.634;2022-12-07T09:22:30;10.23;;;5.70;;
1601;SDS011;794;48.592;9.634;2022-12-07T09:25:00;7.07;;;5.53;;
1601;SDS011;794;48.592;9.634;2022-12-07T09:27:27;6.63;;;5.93;;
1601;SDS011;794;48.592;9.634;2022-12-07T09:29:54;6.00;;;4.80;;
1601;SDS011;794;48.592;9.634;2022-12-07T09:32:22;6.83;;;5.00;;
1601;SDS011;794;48.592;9.634;2022-12-07T09:34:49;13.30;;;8.60;;
1601;SDS011;794;48.592;9.634;2022-12-07T09:37:16;22.47;;;13.03;;
1601;SDS011;794;48.592;9.634;2022-12-07T09:39:44;9.63;;;6.20;;
1601;SDS011;794;48.592;9.634;2022-12-07T09:42:17;4.60;;;4.20;;
1601;SDS011;794;48.592;9.634;2022-12-07T09:44:48;5.87;;;4.03;;
1601;SDS011;794;48.592;9.634;2022-12-07T09:47:16;5.73;;;4.20;;
1601;SDS011;794;48.592;9.634;2022-12-07T09:49:43;6.23;;;4.80;;
1601;SDS011;794;48.592;9.634;2022-12-07T09:52:16;3.70;;;3.40;;
1601;SDS011;794;48.592;9.634;2022-12-07T09:54:45;5.20;;;4.70;;
1601;SDS011;794;48.592;9.634;2022-12-07T09:57:18;5.23;;;4.20;;
1601;SDS011;794;48.592;9.634;2022-12-07T09:59:48;4.33;;;3.67;;
1601;SDS011;794;48.592;9.634;2022-12-07T10:02:25;4.30;;;3.50;;
1601;SDS011;794;48.592;9.634;2022-12-07T10:04:53;6.17;;;3.93;;
1601;SDS011;794;48.592;9.634;2022-12-07T10:07:20;5.00;;;3.80;;
1601;SDS011;794;48.592;9.634;2022-12-07T10:09:49;5.10;;;3.73;;
1601;SDS011;794;48.592;9.634;2022-12-07T10:12:18;5.67;;;3.73;;
1601;SDS011;794;48.592;9.634;2022-12-07T10:14:54;3.47;;;3.17;;
1601;SDS011;794;48.592;9.634;2022-12-07T10:17:26;3.77;;;3.30;;
1601;SDS011;794;48.592;9.634;2022-12-07T10:20:18;4.80;;;3.63;;
1601;SDS011;794;48.592;9.634;2022-12-07T10:22:58;4.00;;;3.60;;
1601;SDS011;794;48.592;9.634;2022-12-07T10:25:26;3.73;;;3.33;;
1601;SDS011;794;48.592;9.634;2022-12-07T10:28:02;4.50;;;3.20;;
1601;SDS011;794;48.592;9.634;2022-12-07T10:30:30;4.10;;;3.43;;
1601;SDS011;794;48.592;9.634;2022-12-07T10:32:58;3.30;;;3.00;;
1601;SDS011;794;48.592;9.634;2022-12-07T10:35:26;3.60;;;3.20;;
1601;SDS011;794;48.592;9.634;2022-12-07T10:37:54;4.60;;;3.03;;
1601;SDS011;794;48.592;9.634;2022-12-07T10:40:27;4.40;;;3.10;;
1601;SDS011;794;48.592;9.634;2022-12-07T10:43:03;3.80;;;2.73;;
1601;SDS011;794;48.592;9.634;2022-12-07T10:45:39;4.50;;;2.90;;
1601;SDS011;794;48.592;9.634;2022-12-07T10:48:16;4.23;;;2.87;;
1601;SDS011;794;48.592;9.634;2022-12-07T10:50:48;4.70;;;2.47;;
1601;SDS011;794;48.592;9.634;2022-12-07T10:53:25;2.90;;;2.60;;
1601;SDS011;794;48.592;9.634;2022-12-07T10:55:56;3.20;;;2.90;;
1601;SDS011;794;48.592;9.634;2022-12-07T10:58:34;3.10;;;2.80;;
1601;SDS011;794;48.592;9.634;2022-12-07T11:01:05;2.73;;;2.53;;
1601;SDS011;794;48.592;9.634;2022-12-07T11:03:39;3.37;;;3.07;;
1601;SDS011;794;48.592;9.634;2022-12-07T11:06:19;3.13;;;2.83;;
1601;SDS011;794;48.592;9.634;2022-12-07T11:08:52;3.10;;;2.50;;
1601;SDS011;794;48.592;9.634;2022-12-07T11:11:26;3.00;;;2.70;;
1601;SDS011;794;48.592;9.634;2022-12-07T11:13:59;3.17;;;2.53;;
1601;SDS011;794;48.592;9.634;2022-12-07T11:16:38;2.97;;;2.70;;
1601;SDS011;794;48.592;9.634;2022-12-07T11:19:20;6.50;;;4.40;;
1601;SDS011;794;48.592;9.634;2022-12-07T11:21:53;3.00;;;2.80;;
1601;SDS011;794;48.592;9.634;2022-12-07T11:24:24;2.60;;;2.00;;
1601;SDS011;794;48.592;9.634;2022-12-07T11:27:02;3.90;;;2.87;;
1601;SDS011;794;48.592;9.634;2022-12-07T11:29:46;3.80;;;2.90;;
1601;SDS011;794;48.592;9.634;2022-12-07T11:32:17;2.80;;;2.47;;
1601;SDS011;794;48.592;9.634;2022-12-07T11:34:50;3.00;;;2.70;;
1601;SDS011;794;48.592;9.634;2022-12-07T11:37:25;3.17;;;2.13;;
1601;SDS011;794;48.592;9.634;2022-12-07T11:39:58;6.13;;;2.70;;
1601;SDS011;794;48.592;9.634;2022-12-07T11:42:31;3.20;;;2.30;;
1601;SDS011;794;48.592;9.634;2022-12-07T11:45:10;2.67;;;2.47;;
1601;SDS011;794;48.592;9.634;2022-12-07T11:47:40;2.80;;;2.47;;
1601;SDS011;794;48.592;9.634;2022-12-07T11:52:43;2.40;;;2.20;;
1601;SDS011;794;48.592;9.634;2022-12-07T11:55:16;2.60;;;2.40;;
1601;SDS011;794;48.592;9.634;2022-12-07T11:57:46;2.57;;;2.27;;
1601;SDS011;794;48.592;9.634;2022-12-07T12:00:19;2.30;;;2.00;;
1601;SDS011;794;48.592;9.634;2022-12-07T12:02:48;4.97;;;2.47;;
1601;SDS011;794;48.592;9.634;2022-12-07T12:08:06;4.00;;;2.43;;
1601;SDS011;794;48.592;9.634;2022-12-07T12:10:42;2.60;;;2.30;;
1601;SDS011;794;48.592;9.634;2022-12-07T12:16:11;3.67;;;3.30;;
1601;SDS011;794;48.592;9.634;2022-12-07T12:18:45;4.40;;;3.50;;
1601;SDS011;794;48.592;9.634;2022-12-07T12:21:15;3.73;;;2.97;;
1601;SDS011;794;48.592;9.634;2022-12-07T12:23:44;5.03;;;4.00;;
1601;SDS011;794;48.592;9.634;2022-12-07T12:26:16;3.00;;;2.80;;
1601;SDS011;794;48.592;9.634;2022-12-07T12:28:49;3.90;;;3.50;;
1601;SDS011;794;48.592;9.634;2022-12-07T12:31:31;8.23;;;4.77;;
1601;SDS011;794;48.592;9.634;2022-12-07T12:34:01;6.73;;;4.37;;
1601;SDS011;794;48.592;9.634;2022-12-07T12:36:43;4.67;;;3.93;;
1601;SDS011;794;48.592;9.634;2022-12-07T12:39:13;3.40;;;3.00;;
1601;SDS011;794;48.592;9.634;2022-12-07T12:41:56;6.20;;;4.93;;
1601;SDS011;794;48.592;9.634;2022-12-07T12:47:42;5.13;;;4.50;;
1601;SDS011;794;48.592;9.634;2022-12-07T12:50:17;3.60;;;3.30;;
1601;SDS011;794;48.592;9.634;2022-12-07T12:52:46;4.47;;;3.90;;
1601;SDS011;794;48.592;9.634;2022-12-07T12:55:19;4.33;;;2.87;;
1601;SDS011;794;48.592;9.634;2022-12-07T13:00:30;4.00;;;3.60;;
1601;SDS011;794;48.592;9.634;2022-12-07T13:02:59;3.93;;;3.53;;
1601;SDS011;794;48.592;9.634;2022-12-07T13:05:27;4.90;;;3.77;;
1601;SDS011;794;48.592;9.634;2022-12-07T13:07:59;4.03;;;3.03;;
1601;SDS011;794;48.592;9.634;2022-12-07T13:10:37;4.20;;;3.43;;
1601;SDS011;794;48.592;9.634;2022-12-07T13:13:25;6.03;;;4.07;;
1601;SDS011;794;48.592;9.634;2022-12-07T13:15:52;3.77;;;3.47;;
1601;SDS011;794;48.592;9.634;2022-12-07T13:18:34;3.90;;;3.13;;
1601;SDS011;794;48.592;9.634;2022-12-07T13:21:02;3.87;;;3.53;;
1601;SDS011;794;48.592;9.634;2022-12-07T13:23:30;4.00;;;3.60;;
1601;SDS011;794;48.592;9.634;2022-12-07T13:26:03;4.37;;;2.90;;
1601;SDS011;794;48.592;9.634;2022-12-07T13:28:37;4.90;;;3.70;;
1601;SDS011;794;48.592;9.634;2022-12-07T13:31:11;4.77;;;3.60;;
1601;SDS011;794;48.592;9.634;2022-12-07T13:33:41;4.10;;;3.60;;
1601;SDS011;794;48.592;9.634;2022-12-07T13:36:11;5.20;;;4.10;;
1601;SDS011;794;48.592;9.634;2022-12-07T13:38:47;4.90;;;4.20;;
1601;SDS011;794;48.592;9.634;2022-12-07T13:41:15;5.20;;;4.50;;
1601;SDS011;794;48.592;9.634;2022-12-07T13:43:44;4.50;;;4.00;;
1601;SDS011;794;48.592;9.634;2022-12-07T13:46:11;7.37;;;5.60;;
1601;SDS011;794;48.592;9.634;2022-12-07T13:48:46;5.60;;;4.60;;
1601;SDS011;794;48.592;9.634;2022-12-07T13:51:17;11.07;;;6.80;;
1601;SDS011;794;48.592;9.634;2022-12-07T13:53:51;8.83;;;5.53;;
1601;SDS011;794;48.592;9.634;2022-12-07T13:56:20;6.47;;;4.50;;
1601;SDS011;794;48.592;9.634;2022-12-07T13:58:48;7.57;;;4.70;;
1601;SDS011;794;48.592;9.634;2022-12-07T14:01:15;8.67;;;4.70;;
1601;SDS011;794;48.592;9.634;2022-12-07T14:03:44;5.73;;;5.20;;
1601;SDS011;794;48.592;9.634;2022-12-07T14:06:16;7.77;;;5.43;;
1601;SDS011;794;48.592;9.634;2022-12-07T14:08:44;5.73;;;4.30;;
1601;SDS011;794;48.592;9.634;2022-12-07T14:11:13;5.80;;;4.50;;
1601;SDS011;794;48.592;9.634;2022-12-07T14:13:44;8.50;;;5.27;;
1601;SDS011;794;48.592;9.634;2022-12-07T14:16:18;8.03;;;5.37;;
1601;SDS011;794;48.592;9.634;2022-12-07T14:18:47;5.40;;;4.33;;
1601;SDS011;794;48.592;9.634;2022-12-07T14:21:14;6.40;;;4.90;;
1601;SDS011;794;48.592;9.634;2022-12-07T14:23:43;6.67;;;5.33;;
1601;SDS011;794;48.592;9.634;2022-12-07T14:26:13;6.80;;;4.73;;
1601;SDS011;794;48.592;9.634;2022-12-07T14:28:40;5.77;;;4.23;;
1601;SDS011;794;48.592;9.634;2022-12-07T14:31:10;4.90;;;4.37;;
1601;SDS011;794;48.592;9.634;2022-12-07T14:33:40;4.87;;;4.10;;
1601;SDS011;794;48.592;9.634;2022-12-07T14:36:09;7.40;;;5.47;;
1601;SDS011;794;48.592;9.634;2022-12-07T14:38:37;7.10;;;5.30;;
1601;SDS011;794;48.592;9.634;2022-12-07T14:41:04;5.30;;;4.60;;
1601;SDS011;794;48.592;9.634;2022-12-07T14:43:54;8.30;;;5.37;;
1601;SDS011;794;48.592;9.634;2022-12-07T14:46:21;7.43;;;5.50;;
1601;SDS011;794;48.592;9.634;2022-12-07T14:48:48;8.30;;;5.83;;
1601;SDS011;794;48.592;9.634;2022-12-07T14:51:17;14.10;;;8.63;;
1601;SDS011;794;48.592;9.634;2022-12-07T14:53:45;26.60;;;20.57;;
1601;SDS011;794;48.592;9.634;2022-12-07T14:56:13;13.50;;;10.57;;
1601;SDS011;794;48.592;9.634;2022-12-07T14:58:40;9.17;;;6.60;;
1601;SDS011;794;48.592;9.634;2022-12-07T15:01:08;14.67;;;13.37;;
1601;SDS011;794;48.592;9.634;2022-12-07T15:03:35;7.67;;;6.30;;
1601;SDS011;794;48.592;9.634;2022-12-07T15:06:06;9.20;;;5.50;;
1601;SDS011;794;48.592;9.634;2022-12-07T15:08:35;8.83;;;6.80;;
1601;SDS011;794;48.592;9.634;2022-12-07T15:11:02;7.67;;;6.23;;
1601;SDS011;794;48.592;9.634;2022-12-07T15:13:29;5.93;;;5.33;;
1601;SDS011;794;48.592;9.634;2022-12-07T15:16:16;6.70;;;5.43;;
1601;SDS011;794;48.592;9.634;2022-12-07T15:18:45;6.83;;;6.13;;
1601;SDS011;794;48.592;9.634;2022-12-07T15:21:12;9.57;;;7.43;;
1601;SDS011;794;48.592;9.634;2022-12-07T15:23:43;11.13;;;6.77;;
1601;SDS011;794;48.592;9.634;2022-12-07T15:26:10;8.67;;;6.13;;
1601;SDS011;794;48.592;9.634;2022-12-07T15:28:38;11.03;;;7.23;;
1601;SDS011;794;48.592;9.634;2022-12-07T15:31:10;9.50;;;6.73;;
1601;SDS011;794;48.592;9.634;2022-12-07T15:33:38;8.63;;;7.73;;
1601;SDS011;794;48.592;9.634;2022-12-07T15:36:07;8.07;;;6.87;;
1601;SDS011;794;48.592;9.634;2022-12-07T15:38:34;8.77;;;7.83;;
1601;SDS011;794;48.592;9.634;2022-12-07T15:41:03;6.87;;;5.90;;
1601;SDS011;794;48.592;9.634;2022-12-07T15:43:30;14.27;;;7.43;;
1601;SDS011;794;48.592;9.634;2022-12-07T15:46:15;9.43;;;7.20;;
1601;SDS011;794;48.592;9.634;2022-12-07T15:48:43;7.33;;;6.07;;
1601;SDS011;794;48.592;9.634;2022-12-07T15:51:12;10.80;;;6.53;;
1601;SDS011;794;48.592;9.634;2022-12-07T15:53:39;8.30;;;7.13;;
1601;SDS011;794;48.592;9.634;2022-12-07T15:56:11;12.10;;;6.80;;